Terminal Aerodrome Forecast
Issued by NWS Cleveland, OH

Home | Current Version | Previous Version | Graphics & Text | Print | Product List | Glossary On
Versions: 1 2 3 4 5 6 7 8 9 10 11 12 13 14 15 16 17 18 19 20
000
FTUS41 KCLE 250300 AAA
TAFERI
TAF AMD
KERI 250311Z 2503/2524 23012G18KT 5SM -SN BKN025 OVC040
      TEMPO 2505/2509 2SM -SHSN BKN015 OVC030
     FM250900 24012G18KT 6SM -SHSN BKN022 OVC035
     FM251200 28010KT P6SM VCSH BKN025
     FM251800 28008KT P6SM SCT030 BKN250=

USA.gov is the U.S. government's official web portal to all federal, state and local government web resources and services.